Granada/Aeropuerto, Spain
Current Conditions -  °F | °C
As of 5:30 AM on Friday 31 Oct 2014 (Local Time) from LEGR Reporting Station
Clear Clear  
Wind Chill: 45°   Ceiling: Unl
Heat Index: 45°   Visibility: 6mi
Dew Point: 41°   Wind: 0mph
Humidity: 87%   Direction: NA
Pressure: 30.21"   Gusts: NA
Location:  37.18°N, 3.78°W
Report Text: LEGR 310430Z AUTO 00000KT CAVOK 07/05 Q1023
Loading
Personal Weather Stations






























Interactive Weather Map
Tropical Storm Tracking
New forecast layout! Learn more

10-Day Weather Forecast

Advertisements
Track Severe Weather on mobile